Time;durP1;ratioP1;P1;durP2;ratioP2;P2;SDS_P1;SDS_P2;PMS_P1;PMS_P2;Temp;Humidity;BMP_temperature;BMP_pressure;BME280_temperature;BME280_humidity;BME280_pressure;Samples;Min_cycle;Max_cycle;Signal;HPM_P1;HPM_P2
2023/02/15 00:01:35;;;;;;;84.15;49.95;;;;;;;8.74;69.49;102192.06;5063064;28;20051;-74
2023/02/15 00:04:04;;;;;;;91.05;49.58;;;;;;;8.64;69.99;102182.94;5065012;28;20037;-74
2023/02/15 00:06:32;;;;;;;81.68;49.28;;;;;;;8.58;70.11;102186.72;5056163;28;20044;-73
2023/02/15 00:09:00;;;;;;;78.65;47.72;;;;;;;8.60;70.34;102177.16;5060312;28;20530;-73
2023/02/15 00:11:39;;;;;;;79.60;49.13;;;;;;;8.56;70.17;102176.00;5065422;28;20063;-73
2023/02/15 00:14:11;;;;;;;76.57;47.65;;;;;;;8.55;70.20;102177.13;5062919;28;20036;-74
2023/02/15 00:16:40;;;;;;;80.13;48.03;;;;;;;8.54;70.40;102169.16;5045224;28;20053;-73
2023/02/15 00:19:09;;;;;;;78.38;47.88;;;;;;;8.53;70.38;102168.31;5068299;28;20049;-73
2023/02/15 00:21:37;;;;;;;84.13;49.15;;;;;;;8.60;70.32;102166.16;5064819;28;20075;-73
2023/02/15 00:24:08;;;;;;;84.35;48.30;;;;;;;8.59;70.17;102164.53;5073270;28;20387;-73
2023/02/15 00:26:35;;;;;;;82.38;48.67;;;;;;;8.44;70.49;102158.09;5067017;28;20045;-73
2023/02/15 00:29:03;;;;;;;76.60;48.83;;;;;;;8.68;70.06;102156.59;5055018;28;20049;-72
2023/02/15 00:31:32;;;;;;;78.88;48.33;;;;;;;8.61;69.49;102156.81;5063464;28;20054;-73
2023/02/15 00:34:03;;;;;;;77.35;47.38;;;;;;;8.52;70.34;102152.09;5057612;28;20045;-73
2023/02/15 00:36:31;;;;;;;77.28;48.42;;;;;;;8.61;70.16;102147.78;5047160;28;20048;-72
2023/02/15 00:38:58;;;;;;;83.05;48.75;;;;;;;8.51;70.08;102147.69;5036729;28;20048;-73
2023/02/15 00:41:26;;;;;;;80.50;48.83;;;;;;;8.58;70.13;102140.03;5056466;28;20491;-73
2023/02/15 00:43:53;;;;;;;75.72;48.53;;;;;;;8.53;70.26;102140.84;5070793;28;20044;-74
2023/02/15 00:46:21;;;;;;;81.32;49.05;;;;;;;8.40;70.55;102140.50;5064814;28;20377;-74
2023/02/15 00:48:48;;;;;;;77.63;47.90;;;;;;;8.50;70.19;102144.13;5063677;28;20063;-73
2023/02/15 00:51:16;;;;;;;84.20;48.20;;;;;;;8.43;70.80;102142.69;5053017;28;20048;-73
2023/02/15 00:53:44;;;;;;;79.97;48.25;;;;;;;8.26;70.54;102148.38;5071501;28;20504;-72
2023/02/15 00:56:13;;;;;;;83.88;49.35;;;;;;;8.16;71.20;102145.47;5065544;28;20063;-73
2023/02/15 00:58:40;;;;;;;77.70;48.70;;;;;;;8.06;72.14;102134.44;5047809;28;20135;-72
2023/02/15 01:01:14;;;;;;;78.90;46.80;;;;;;;8.13;71.51;102134.19;5065524;28;20058;-73
2023/02/15 01:03:42;;;;;;;75.72;46.88;;;;;;;8.29;71.51;102134.09;5048850;28;20056;-73
2023/02/15 01:06:10;;;;;;;81.45;48.53;;;;;;;8.21;71.08;102134.53;5070791;28;20036;-74
2023/02/15 01:08:38;;;;;;;74.30;45.97;;;;;;;8.17;71.50;102133.44;5072071;28;20060;-73
2023/02/15 01:11:10;;;;;;;77.38;47.58;;;;;;;8.19;71.58;102135.91;5052105;28;20044;-72
2023/02/15 01:13:39;;;;;;;82.75;48.58;;;;;;;8.11;71.85;102137.22;5064851;28;20056;-73
2023/02/15 01:16:06;;;;;;;81.72;48.97;;;;;;;8.04;71.79;102130.31;5060720;28;20491;-73
2023/02/15 01:18:34;;;;;;;83.05;47.40;;;;;;;8.15;71.59;102123.78;5070498;28;20060;-72
2023/02/15 01:21:13;;;;;;;79.30;47.47;;;;;;;8.28;71.49;102128.88;5052022;28;20052;-73
2023/02/15 01:23:43;;;;;;;78.20;47.53;;;;;;;8.17;71.81;102121.63;5044716;28;20056;-72
2023/02/15 01:26:13;;;;;;;79.07;48.05;;;;;;;8.18;71.55;102121.34;5072511;28;20056;-72
2023/02/15 01:28:43;;;;;;;81.88;48.38;;;;;;;8.12;71.80;102116.09;5060671;28;20052;-73
2023/02/15 01:31:13;;;;;;;79.75;48.42;;;;;;;8.21;71.72;102115.31;5057906;28;20056;-74
2023/02/15 01:33:41;;;;;;;78.80;47.85;;;;;;;8.30;71.49;102116.53;5061685;28;20048;-73
2023/02/15 01:36:09;;;;;;;78.80;47.25;;;;;;;8.26;71.06;102118.16;5067636;28;20052;-73
2023/02/15 01:38:39;;;;;;;78.20;47.35;;;;;;;8.35;71.01;102127.53;5058391;28;20456;-72
2023/02/15 01:43:56;;;;;;;84.95;49.67;;;;;;;8.02;72.35;102129.75;5059918;28;20049;-73
2023/02/15 01:46:32;;;;;;;77.15;48.50;;;;;;;8.08;72.27;102131.44;5064040;28;20045;-73
2023/02/15 01:49:03;;;;;;;88.10;51.22;;;;;;;7.86;72.69;102124.13;5064027;28;20048;-73
2023/02/15 01:51:33;;;;;;;79.05;49.67;;;;;;;7.89;73.26;102125.53;5053533;28;20392;-72
2023/02/15 01:54:07;;;;;;;80.82;48.50;;;;;;;7.95;73.24;102132.69;5065950;28;20060;-71
2023/02/15 01:56:37;;;;;;;75.63;47.60;;;;;;;8.02;72.74;102127.00;5055535;28;20404;-73
2023/02/15 01:59:09;;;;;;;76.83;48.63;;;;;;;8.25;72.21;102116.50;5052294;28;20049;-73
2023/02/15 02:01:37;;;;;;;78.60;47.90;;;;;;;8.10;72.42;102118.28;5056880;28;20327;-73
2023/02/15 02:04:11;;;;;;;82.47;50.25;;;;;;;8.17;72.40;102116.13;5058294;28;20067;-73
2023/02/15 02:06:39;;;;;;;78.15;49.13;;;;;;;8.19;72.08;102113.97;5070606;28;20408;-72
2023/02/15 02:09:07;;;;;;;79.07;48.83;;;;;;;8.11;72.16;102114.47;5040099;28;20199;-72
2023/02/15 02:11:34;;;;;;;80.65;48.63;;;;;;;7.93;72.79;102113.75;5064782;28;20044;-73
2023/02/15 02:14:03;;;;;;;84.65;48.67;;;;;;;7.92;73.04;102116.75;5053067;28;20041;-73
2023/02/15 02:16:49;;;;;;;80.75;49.38;;;;;;;7.89;73.17;102103.56;5057206;28;20049;-73
2023/02/15 02:19:19;;;;;;;78.90;48.97;;;;;;;7.98;72.80;102107.50;5058495;28;20072;-74
2023/02/15 02:21:59;;;;;;;79.50;47.97;;;;;;;7.94;72.69;102104.44;5056432;28;20056;-74
2023/02/15 02:25:08;;;;;;;79.40;48.15;;;;;;;7.94;72.94;102103.59;5051634;28;20049;-73
2023/02/15 02:28:06;;;;;;;80.53;49.38;;;;;;;7.76;73.62;102104.00;5059024;28;20071;-73
2023/02/15 02:31:08;;;;;;;79.82;49.50;;;;;;;7.68;73.85;102101.75;5056367;28;20052;-74
2023/02/15 02:33:43;;;;;;;87.05;48.83;;;;;;;7.69;73.99;102098.72;5058481;28;20048;-73
2023/02/15 02:36:42;;;;;;;87.25;49.22;;;;;;;7.70;73.95;102099.56;5059551;28;20047;-73
2023/02/15 02:39:40;;;;;;;80.53;49.85;;;;;;;7.73;74.05;102085.31;5043734;28;20064;-73
2023/02/15 02:42:29;;;;;;;83.05;48.33;;;;;;;7.58;74.38;102090.69;5053381;28;20557;-72
2023/02/15 02:45:08;;;;;;;78.00;47.13;;;;;;;7.66;74.34;102087.47;5056002;28;20045;-73
2023/02/15 02:47:57;;;;;;;79.38;48.53;;;;;;;7.56;74.44;102090.13;5061768;28;20049;-72
2023/02/15 02:50:29;;;;;;;81.68;48.53;;;;;;;7.55;74.80;102081.06;5058605;28;20068;-72
2023/02/15 02:52:58;;;;;;;81.35;48.40;;;;;;;7.53;74.44;102080.47;5055232;28;20060;-72
2023/02/15 02:55:32;;;;;;;82.95;49.80;;;;;;;7.51;74.83;102071.72;5060686;28;20522;-73
2023/02/15 02:58:08;;;;;;;81.97;49.35;;;;;;;7.59;74.32;102082.19;5053266;28;20044;-73
2023/02/15 03:00:39;;;;;;;84.00;49.45;;;;;;;7.56;74.40;102079.97;5063425;28;20056;-74
2023/02/15 03:03:11;;;;;;;84.13;49.88;;;;;;;7.52;74.37;102084.31;5053394;28;20056;-74
2023/02/15 03:05:41;;;;;;;79.43;48.45;;;;;;;7.50;74.73;102091.13;5048584;28;20420;-74
2023/02/15 03:08:09;;;;;;;78.00;48.03;;;;;;;7.55;74.74;102091.22;5042206;28;20064;-73
2023/02/15 03:10:39;;;;;;;84.18;48.15;;;;;;;7.47;74.67;102094.41;5019986;28;20052;-73
2023/02/15 03:13:07;;;;;;;84.18;47.28;;;;;;;7.60;74.68;102096.75;5054524;28;20048;-73
2023/02/15 03:18:28;;;;;;;79.07;47.05;;;;;;;7.39;75.37;102094.88;5054591;28;20507;-73
2023/02/15 03:20:57;;;;;;;77.70;46.75;;;;;;;7.33;75.08;102093.16;5060634;28;20059;-73
2023/02/15 03:23:26;;;;;;;81.70;48.72;;;;;;;7.40;74.69;102088.31;5055826;28;20045;-73
2023/02/15 03:26:00;;;;;;;82.60;48.38;;;;;;;7.35;75.19;102088.25;5059770;28;20517;-73
2023/02/15 03:28:40;;;;;;;77.85;47.13;;;;;;;7.55;74.29;102085.72;5077346;28;20045;-73
2023/02/15 03:31:08;;;;;;;79.50;48.65;;;;;;;7.46;74.69;102079.88;5061083;28;20053;-73
2023/02/15 03:33:38;;;;;;;79.13;47.63;;;;;;;7.48;74.82;102076.91;5052356;28;20045;-74
2023/02/15 03:36:06;;;;;;;;;;;;;;;7.48;74.71;102079.63;5055015;28;20416;-72
2023/02/15 03:38:43;;;;;;;80.07;46.65;;;;;;;7.44;75.02;102076.59;5075260;28;19924;-73
2023/02/15 03:41:11;;;;;;;74.30;47.40;;;;;;;7.40;74.49;102075.44;5053985;28;20095;-72
2023/02/15 03:43:52;;;;;;;85.93;49.05;;;;;;;7.41;75.06;102082.56;5070524;28;20412;-72
2023/02/15 03:47:09;;;;;;;82.35;47.75;;;;;;;7.37;74.84;102080.59;5053066;28;20510;-72
2023/02/15 03:49:45;;;;;;;81.55;47.20;;;;;;;7.29;74.97;102084.63;5056305;28;20068;-73
2023/02/15 03:52:14;;;;;;;79.10;48.25;;;;;;;7.34;75.42;102079.19;5056127;28;20067;-72
2023/02/15 03:54:43;;;;;;;83.10;48.13;;;;;;;7.27;75.33;102080.50;5051960;28;20056;-72
2023/02/15 04:03:22;;;;;;;83.93;50.03;;;;;;;7.16;75.74;102084.22;5059276;28;20105;-72
2023/02/15 04:05:50;;;;;;;79.60;47.45;;;;;;;7.17;76.17;102080.38;5046925;28;20044;-73
2023/02/15 04:08:17;;;;;;;80.80;48.70;;;;;;;7.23;75.68;102079.38;5055527;28;20080;-72
2023/02/15 04:10:55;;;;;;;82.88;48.95;;;;;;;7.09;75.93;102083.59;5064088;28;20060;-72
2023/02/15 04:13:31;;;;;;;77.22;47.42;;;;;;;7.19;76.04;102084.53;5041465;28;20542;-73
2023/02/15 04:16:05;;;;;;;80.55;48.80;;;;;;;7.17;75.52;102081.22;5074206;28;21056;-74
2023/02/15 04:27:02;;;;;;;81.88;48.55;;;;;;;7.11;76.05;102078.69;5059282;28;20047;-71
2023/02/15 04:29:30;;;;;;;81.43;49.00;;;;;;;7.09;75.81;102078.13;5038037;28;20075;-73
2023/02/15 04:31:59;;;;;;;85.25;50.50;;;;;;;7.08;75.93;102073.72;5055407;28;20049;-73
2023/02/15 04:34:26;;;;;;;81.90;50.05;;;;;;;7.09;76.24;102078.13;5064723;28;20048;-73
2023/02/15 04:36:54;;;;;;;84.18;49.63;;;;;;;7.06;76.24;102087.66;5061393;28;20045;-73
2023/02/15 04:39:21;;;;;;;83.43;49.95;;;;;;;7.01;76.32;102086.81;5061775;28;20044;-73
2023/02/15 04:41:48;;;;;;;86.55;49.78;;;;;;;6.79;77.05;102082.16;5063564;28;20045;-73
2023/02/15 04:44:16;;;;;;;80.70;50.25;;;;;;;6.64;77.77;102087.41;5057664;28;20056;-73
2023/02/15 04:46:43;;;;;;;87.68;52.13;;;;;;;6.61;78.65;102087.94;5067163;28;20052;-73
2023/02/15 04:49:10;;;;;;;81.20;49.15;;;;;;;6.70;78.26;102075.47;5065535;28;20100;-73
2023/02/15 04:51:38;;;;;;;84.38;50.92;;;;;;;6.74;77.61;102073.88;5067053;28;20044;-73
2023/02/15 04:54:05;;;;;;;84.43;51.08;;;;;;;6.82;77.69;102062.47;5069441;28;20060;-72
2023/02/15 04:56:34;;;;;;;88.38;51.42;;;;;;;6.86;77.41;102068.25;5053705;28;20053;-72
2023/02/15 04:59:01;;;;;;;93.47;52.60;;;;;;;6.96;76.92;102067.56;5055311;28;20049;-67
2023/02/15 05:01:29;;;;;;;88.13;52.42;;;;;;;6.67;78.18;102073.25;5063061;28;20053;-67
2023/02/15 05:03:56;;;;;;;87.38;51.50;;;;;;;6.85;78.12;102072.91;5057039;28;20523;-68
2023/02/15 05:06:24;;;;;;;82.38;51.10;;;;;;;6.85;77.97;102070.16;5060457;28;20045;-68
2023/02/15 05:08:51;;;;;;;87.32;53.78;;;;;;;6.87;77.98;102080.06;5066113;28;20081;-66
2023/02/15 05:11:19;;;;;;;92.38;54.70;;;;;;;6.93;78.08;102074.38;5057988;28;20352;-67
2023/02/15 05:13:46;;;;;;;92.90;54.08;;;;;;;6.82;78.08;102069.84;5048862;28;20052;-67
2023/02/15 05:16:14;;;;;;;93.40;54.65;;;;;;;6.59;78.96;102067.41;5052709;28;20052;-66
2023/02/15 05:18:41;;;;;;;97.88;56.22;;;;;;;6.74;78.76;102073.06;5068258;28;20037;-66
2023/02/15 05:21:08;;;;;;;90.75;54.85;;;;;;;6.77;78.53;102070.63;5060088;28;20053;-67
2023/02/15 05:23:36;;;;;;;99.60;55.22;;;;;;;6.78;78.49;102079.69;5059766;28;20052;-67
2023/02/15 05:28:53;;;;;;;97.55;56.05;;;;;;;6.86;78.66;102068.25;5057895;28;20366;-68
2023/02/15 05:31:21;;;;;;;99.57;57.13;;;;;;;6.97;78.49;102066.47;5067835;28;20047;-67
2023/02/15 05:33:49;;;;;;;93.32;55.00;;;;;;;6.83;78.46;102071.53;5076221;28;20051;-67
2023/02/15 05:36:17;;;;;;;101.18;57.72;;;;;;;6.84;78.60;102075.91;5048284;28;20538;-67
2023/02/15 05:38:44;;;;;;;98.85;57.38;;;;;;;6.64;79.26;102071.00;5055766;28;20053;-68
2023/02/15 05:41:11;;;;;;;98.80;57.92;;;;;;;6.77;78.76;102061.59;5070825;28;20059;-68
2023/02/15 05:43:39;;;;;;;102.28;59.97;;;;;;;6.69;79.02;102073.78;5072872;28;20052;-67
2023/02/15 05:46:07;;;;;;;102.53;57.50;;;;;;;6.80;78.75;102070.13;5074053;28;20052;-68
2023/02/15 05:48:34;;;;;;;98.95;58.58;;;;;;;6.59;79.11;102072.88;5063402;28;20041;-66
2023/02/15 05:51:11;;;;;;;97.30;55.55;;;;;;;6.47;79.73;102066.66;5057423;28;20037;-66
2023/02/15 05:53:39;;;;;;;96.88;57.55;;;;;;;6.35;80.56;102066.78;5047176;28;20053;-66
2023/02/15 05:56:09;;;;;;;99.75;57.25;;;;;;;6.36;80.34;102062.94;5064912;28;20048;-66
2023/02/15 05:58:38;;;;;;;98.30;57.42;;;;;;;6.51;80.14;102062.34;5060969;28;20053;-66
2023/02/15 06:01:16;;;;;;;99.28;59.10;;;;;;;6.40;80.23;102066.84;5075549;28;20052;-68
2023/02/15 06:03:45;;;;;;;101.43;58.47;;;;;;;6.62;79.78;102053.19;5052137;28;20049;-68
2023/02/15 06:06:13;;;;;;;97.43;58.60;;;;;;;6.67;79.03;102048.63;5048569;28;20059;-66
2023/02/15 06:08:41;;;;;;;101.38;58.50;;;;;;;6.71;78.62;102048.94;5062702;28;20057;-66
2023/02/15 06:11:09;;;;;;;95.22;57.17;;;;;;;6.57;78.98;102051.19;5068595;28;20060;-67
2023/02/15 06:13:36;;;;;;;97.65;58.08;;;;;;;6.35;79.91;102055.00;5061270;28;20044;-67
2023/02/15 06:16:06;;;;;;;103.78;58.47;;;;;;;6.41;79.81;102054.84;5058495;28;20041;-67
2023/02/15 06:18:34;;;;;;;104.65;60.25;;;;;;;6.29;79.84;102051.41;5054733;28;20518;-67
2023/02/15 06:21:01;;;;;;;107.95;60.90;;;;;;;6.22;80.40;102055.38;5054935;28;20057;-68
2023/02/15 06:23:28;;;;;;;98.82;58.70;;;;;;;6.03;81.19;102068.53;5061493;28;20052;-68
2023/02/15 06:25:55;;;;;;;99.38;58.50;;;;;;;6.04;81.16;102072.91;5058050;28;20067;-66
2023/02/15 06:28:25;;;;;;;101.15;60.70;;;;;;;5.93;81.78;102062.88;5056193;28;20505;-66
2023/02/15 06:30:52;;;;;;;102.57;59.75;;;;;;;6.20;81.29;102068.47;5041260;28;20045;-66
2023/02/15 06:33:20;;;;;;;102.38;59.55;;;;;;;6.05;80.99;102068.25;5069621;28;20044;-67
2023/02/15 06:35:47;;;;;;;103.95;59.63;;;;;;;6.14;80.41;102067.56;5054683;28;20052;-65
2023/02/15 06:38:14;;;;;;;96.15;57.78;;;;;;;6.19;80.38;102053.16;5055023;28;20095;-66
2023/02/15 06:40:42;;;;;;;102.88;59.25;;;;;;;6.20;79.81;102057.53;5059517;28;20060;-67
2023/02/15 06:43:09;;;;;;;102.10;58.33;;;;;;;6.18;80.29;102049.59;5054416;28;20529;-67
2023/02/15 06:45:36;;;;;;;97.93;59.40;;;;;;;6.25;79.88;102049.41;5053667;28;20059;-66
2023/02/15 06:48:06;;;;;;;105.00;60.20;;;;;;;6.29;79.88;102048.66;5052402;28;20049;-67
2023/02/15 06:50:34;;;;;;;;;;;;;;;6.17;80.24;102063.53;5055185;28;20056;-66
2023/02/15 06:53:01;;;;;;;100.70;57.65;;;;;;;5.98;80.70;102062.94;5072057;28;19928;-69
2023/02/15 06:55:29;;;;;;;105.18;58.50;;;;;;;6.21;80.81;102073.69;5054451;28;20049;-66
2023/02/15 06:57:57;;;;;;;105.13;60.08;;;;;;;6.03;81.23;102082.19;5054897;28;20523;-68
2023/02/15 07:00:24;;;;;;;102.75;59.92;;;;;;;5.95;81.36;102098.16;5073809;28;20047;-66
2023/02/15 07:02:55;;;;;;;104.78;61.05;;;;;;;6.06;81.70;102095.38;5060305;28;20045;-66
2023/02/15 07:05:24;;;;;;;107.88;62.80;;;;;;;5.87;81.98;102093.97;5056464;28;20048;-66
2023/02/15 07:07:51;;;;;;;105.38;61.78;;;;;;;5.96;82.04;102105.31;5073574;28;20056;-64
2023/02/15 07:10:18;;;;;;;106.22;59.35;;;;;;;6.04;81.83;102102.97;5054508;28;20496;-65
2023/02/15 07:12:46;;;;;;;102.93;61.50;;;;;;;6.05;81.79;102112.03;5057392;28;20683;-68
2023/02/15 07:15:16;;;;;;;104.70;61.55;;;;;;;6.29;81.50;102102.53;5066916;28;20048;-66
2023/02/15 07:17:43;;;;;;;;;;;;;;;6.25;82.02;102102.22;5063364;28;20051;-66
2023/02/15 07:20:16;;;;;;;101.65;58.53;;;;;;;6.01;81.54;102094.44;5064636;28;19920;-65
2023/02/15 07:22:43;;;;;;;100.88;59.20;;;;;;;6.02;81.66;102105.13;5068460;28;20067;-66
2023/02/15 07:25:12;;;;;;;100.70;58.53;;;;;;;6.33;81.23;102099.03;5054188;28;20048;-66
2023/02/15 07:27:40;;;;;;;105.22;59.10;;;;;;;6.36;80.38;102104.00;5065698;28;20048;-66
2023/02/15 07:30:10;;;;;;;102.55;59.05;;;;;;;6.35;80.10;102105.09;5069774;28;20057;-65
2023/02/15 07:33:22;;;;;;;104.75;58.60;;;;;;;6.67;79.55;102108.84;5053232;28;20504;-66
2023/02/15 07:35:25;;;;;;;102.45;59.10;;;;;;;6.39;79.59;102119.94;5066742;28;20052;-66
2023/02/15 07:37:53;;;;;;;108.10;59.53;;;;;;;6.15;80.22;102115.75;5068559;28;20050;-64
2023/02/15 07:40:23;;;;;;;104.20;58.65;;;;;;;6.05;80.49;102112.84;5038939;28;20060;-66
2023/02/15 07:42:54;;;;;;;102.80;59.30;;;;;;;6.25;80.18;102112.31;5056588;28;20510;-70
2023/02/15 07:45:22;;;;;;;99.75;59.80;;;;;;;6.34;80.19;102111.66;5041803;28;20041;-68
2023/02/15 07:47:49;;;;;;;107.57;61.47;;;;;;;6.50;79.67;102120.91;5064116;28;20053;-67
2023/02/15 07:50:17;;;;;;;102.70;60.70;;;;;;;6.39;79.47;102122.69;5057289;28;20045;-65
2023/02/15 07:52:44;;;;;;;103.68;60.45;;;;;;;6.41;79.31;102119.69;5057440;28;20056;-67
2023/02/15 07:55:12;;;;;;;106.82;61.33;;;;;;;6.41;79.38;102120.53;5058039;28;20052;-63
2023/02/15 07:57:47;;;;;;;116.03;64.05;;;;;;;6.52;79.44;102121.50;5043914;28;20044;-63
2023/02/15 08:00:24;;;;;;;110.75;61.63;;;;;;;6.39;79.88;102122.69;5034816;28;20056;-65
2023/02/15 08:03:13;;;;;;;104.43;61.13;;;;;;;6.40;80.24;102124.31;5064172;28;20056;-67
2023/02/15 08:05:43;;;;;;;100.73;60.60;;;;;;;6.82;79.93;102124.63;5058576;28;20507;-64
2023/02/15 08:08:29;;;;;;;104.93;62.27;;;;;;;6.68;78.65;102121.44;5046421;28;20053;-65
2023/02/15 08:11:25;;;;;;;107.82;62.05;;;;;;;6.54;79.02;102133.84;5053578;28;20033;-65
2023/02/15 08:14:07;;;;;;;104.22;62.45;;;;;;;6.74;78.33;102120.44;5058745;28;20428;-66
2023/02/15 08:16:48;;;;;;;110.15;62.28;;;;;;;6.77;77.49;102125.41;5046307;28;20063;-65
2023/02/15 08:19:21;;;;;;;100.60;60.97;;;;;;;6.83;77.63;102129.84;5052952;28;20048;-64
2023/02/15 08:21:53;;;;;;;103.65;61.13;;;;;;;6.87;77.22;102118.41;5060234;28;20052;-66
2023/02/15 08:24:22;;;;;;;100.65;60.10;;;;;;;6.55;77.80;102124.56;5061584;28;20045;-64
2023/02/15 08:26:51;;;;;;;103.25;61.42;;;;;;;6.80;77.49;102124.03;5065832;28;20040;-64
2023/02/15 08:29:21;;;;;;;100.80;60.03;;;;;;;6.78;77.14;102123.50;5065843;28;20045;-66
2023/02/15 08:31:49;;;;;;;102.75;60.90;;;;;;;7.18;76.62;102117.69;5053718;28;20053;-66
2023/02/15 08:34:18;;;;;;;102.13;60.00;;;;;;;7.06;76.40;102117.00;5051700;28;20052;-69
2023/02/15 08:36:46;;;;;;;85.82;54.30;;;;;;;10.68;89.41;102112.09;5058288;28;20052;-67
2023/02/15 08:39:14;;;;;;;92.82;56.75;;;;;;;8.67;69.62;102111.81;5056868;28;20037;-70
2023/02/15 08:41:43;;;;;;;94.25;56.90;;;;;;;7.88;72.01;102110.97;5057770;28;20052;-71
2023/02/15 08:44:11;;;;;;;97.93;58.47;;;;;;;7.65;73.89;102111.31;5071427;28;20049;-70
2023/02/15 08:46:41;;;;;;;93.70;58.78;;;;;;;7.62;74.06;102105.50;5053777;28;20056;-70
2023/02/15 08:49:09;;;;;;;;;;;;;;;7.84;73.83;102106.28;5076144;28;20491;-70
2023/02/15 08:51:38;;;;;;;91.63;57.38;;;;;;;7.49;73.81;102109.53;5065427;28;20006;-70
2023/02/15 08:54:08;;;;;;;102.95;59.58;;;;;;;7.51;74.59;102103.78;5060996;28;20044;-70
2023/02/15 08:56:38;;;;;;;100.78;59.40;;;;;;;7.39;74.46;102105.84;5050757;28;20048;-69
2023/02/15 08:59:07;;;;;;;97.25;58.67;;;;;;;7.31;75.11;102109.88;5062576;28;20613;-71
2023/02/15 09:01:35;;;;;;;106.90;66.65;;;;;;;7.29;75.40;102113.94;5073354;28;20048;-70
2023/02/15 09:04:05;;;;;;;104.97;66.82;;;;;;;7.40;75.22;102111.06;5071671;28;20044;-71
2023/02/15 09:06:32;;;;;;;106.00;62.80;;;;;;;7.36;75.40;102107.19;5071296;28;20423;-67
2023/02/15 09:09:00;;;;;;;96.03;59.22;;;;;;;7.31;74.96;102101.66;5071158;28;20045;-71
2023/02/15 09:11:29;;;;;;;104.32;59.90;;;;;;;7.26;75.33;102104.34;5063141;28;20052;-72
2023/02/15 09:13:59;;;;;;;104.93;61.25;;;;;;;7.54;75.30;102092.28;5065511;28;20044;-71
2023/02/15 09:16:30;;;;;;;99.40;61.35;;;;;;;7.44;74.58;102097.69;5064397;28;20045;-72
2023/02/15 09:18:58;;;;;;;105.80;59.25;;;;;;;7.76;74.00;102095.75;5069257;28;20047;-70
2023/02/15 09:21:26;;;;;;;98.32;60.45;;;;;;;7.68;73.44;102101.75;5075766;28;20044;-70
2023/02/15 09:23:59;;;;;;;108.65;60.50;;;;;;;7.46;74.12;102101.78;5073723;28;20044;-70
2023/02/15 09:26:29;;;;;;;99.05;60.53;;;;;;;7.35;74.88;102118.41;5069487;28;20041;-71
2023/02/15 09:28:59;;;;;;;101.47;64.70;;;;;;;7.55;74.74;102115.88;5042755;28;20491;-70
2023/02/15 09:31:29;;;;;;;102.30;59.63;;;;;;;7.69;74.51;102117.94;5055193;28;20037;-68
2023/02/15 09:33:57;;;;;;;;;;;;;;;7.76;73.12;102120.44;5057615;28;20083;-70
2023/02/15 09:36:28;;;;;;;106.07;61.90;;;;;;;7.90;73.30;102122.50;5054972;28;19928;-68
2023/02/15 09:39:10;;;;;;;109.80;62.38;;;;;;;7.83;72.69;102119.16;5069528;28;20041;-70
2023/02/15 09:42:15;;;;;;;100.30;61.95;;;;;;;7.60;73.50;102121.41;5068152;28;20071;-71
2023/02/15 09:44:58;;;;;;;104.25;61.88;;;;;;;7.71;73.40;102132.22;5074812;28;20063;-69
2023/02/15 09:47:25;;;;;;;109.10;64.22;;;;;;;7.71;73.10;102132.22;5059399;28;20060;-68
2023/02/15 09:50:13;;;;;;;101.05;63.67;;;;;;;7.72;73.25;102136.59;5066280;28;20411;-71
2023/02/15 09:52:40;;;;;;;97.80;61.67;;;;;;;8.00;72.67;102133.56;5048042;28;20057;-71
2023/02/15 09:55:22;;;;;;;116.68;64.40;;;;;;;8.07;72.22;102136.09;5062186;28;20056;-71
2023/02/15 09:58:12;;;;;;;111.00;64.43;;;;;;;8.17;71.87;102132.59;5070476;28;20056;-69
2023/02/15 10:01:04;;;;;;;107.25;62.97;;;;;;;8.02;72.31;102132.50;5053419;28;20063;-70
2023/02/15 10:03:50;;;;;;;112.38;62.90;;;;;;;8.08;72.29;102143.25;5073192;28;20044;-69
2023/02/15 10:06:42;;;;;;;107.82;62.67;;;;;;;8.48;71.87;102135.31;5065172;28;20053;-69
2023/02/15 10:09:24;;;;;;;103.50;61.95;;;;;;;8.62;71.14;102127.44;5056411;28;20056;-70
2023/02/15 10:12:08;;;;;;;101.35;60.58;;;;;;;9.00;69.83;102132.56;5069781;28;20041;-70
2023/02/15 10:14:50;;;;;;;93.40;59.13;;;;;;;8.81;69.93;102142.38;5062345;28;20052;-70
2023/02/15 10:17:20;;;;;;;100.93;62.33;;;;;;;8.87;69.28;102135.81;5067389;28;20041;-69
2023/02/15 10:20:00;;;;;;;107.95;65.32;;;;;;;9.01;69.38;102140.53;5061566;28;20041;-71
2023/02/15 10:22:56;;;;;;;99.53;61.78;;;;;;;9.37;68.47;102130.50;5068181;28;20053;-74
2023/02/15 10:25:23;;;;;;;98.70;61.70;;;;;;;9.24;68.68;102133.75;5060743;28;20057;-73
2023/02/15 10:27:51;;;;;;;107.45;60.92;;;;;;;9.13;68.38;102140.34;5064280;28;20040;-70
2023/02/15 10:30:23;;;;;;;100.55;61.30;;;;;;;9.19;68.44;102139.25;5066071;28;20045;-71
2023/02/15 10:32:57;;;;;;;99.57;62.20;;;;;;;9.20;68.62;102131.84;5066469;28;20060;-70
2023/02/15 10:35:40;;;;;;;97.13;61.58;;;;;;;9.22;68.37;102140.63;5064777;28;20068;-69
2023/02/15 10:38:22;;;;;;;95.68;61.40;;;;;;;9.37;67.99;102144.25;5072613;28;20056;-74
2023/02/15 10:41:05;;;;;;;103.25;61.17;;;;;;;9.37;68.17;102138.75;5066734;28;20400;-69
2023/02/15 10:43:50;;;;;;;98.88;59.35;;;;;;;9.50;67.44;102140.97;5068331;28;20052;-70
2023/02/15 10:46:33;;;;;;;93.57;59.78;;;;;;;9.38;67.84;102125.84;5054195;28;20602;-69
2023/02/15 10:49:03;;;;;;;97.78;60.53;;;;;;;9.37;67.56;102126.94;5069967;28;20045;-70
2023/02/15 10:52:07;;;;;;;93.85;61.70;;;;;;;9.57;66.76;102130.53;5055703;28;20052;-68
2023/02/15 10:54:56;;;;;;;99.70;61.50;;;;;;;9.60;66.50;102130.03;5072985;28;20052;-69
2023/02/15 10:57:38;;;;;;;100.30;60.50;;;;;;;9.77;66.20;102130.59;5048488;28;20045;-70
2023/02/15 11:00:14;;;;;;;102.65;60.90;;;;;;;9.79;65.99;102125.63;5058188;28;20144;-72
2023/02/15 11:02:51;;;;;;;104.45;60.95;;;;;;;9.91;65.44;102123.44;5065884;28;20055;-71
2023/02/15 11:05:50;;;;;;;97.38;61.65;;;;;;;10.00;64.76;102130.06;5069202;28;20049;-71
2023/02/15 11:08:17;;;;;;;99.20;61.42;;;;;;;9.94;65.22;102124.81;5072329;28;20053;-71
2023/02/15 11:10:51;;;;;;;98.28;62.60;;;;;;;10.08;65.19;102125.91;5069327;28;20052;-72
2023/02/15 11:13:20;;;;;;;108.15;63.60;;;;;;;9.99;64.69;102122.88;5035740;28;20045;-72
2023/02/15 11:15:57;;;;;;;101.13;63.10;;;;;;;9.95;65.17;102123.72;5059628;28;20040;-71
2023/02/15 11:18:32;;;;;;;106.30;63.70;;;;;;;10.12;64.46;102116.88;5066480;28;20052;-72
2023/02/15 11:21:38;;;;;;;100.70;61.83;;;;;;;10.16;64.81;102117.94;5055297;28;20040;-71
2023/02/15 11:24:18;;;;;;;98.57;62.50;;;;;;;10.69;64.57;102108.22;5056534;28;20045;-71
2023/02/15 11:27:02;;;;;;;95.00;63.97;;;;;;;10.93;63.47;102100.94;5066427;28;20064;-71
2023/02/15 11:29:45;;;;;;;102.68;64.72;;;;;;;10.87;62.66;102102.09;5062622;28;20459;-70
2023/02/15 11:32:24;;;;;;;102.72;64.78;;;;;;;10.71;62.61;102110.69;5078021;28;20051;-71
2023/02/15 11:34:54;;;;;;;97.63;63.53;;;;;;;10.72;62.95;102109.59;5055761;28;20512;-71
2023/02/15 11:38:11;;;;;;;99.82;64.47;;;;;;;10.79;62.82;102115.63;5070616;28;20055;-71
2023/02/15 11:41:04;;;;;;;94.90;63.58;;;;;;;10.90;61.93;102104.28;5062262;28;20056;-73
2023/02/15 11:43:39;;;;;;;101.50;63.55;;;;;;;10.90;62.10;102097.94;5040913;28;20051;-72
2023/02/15 11:46:10;;;;;;;93.85;63.50;;;;;;;11.08;62.16;102089.88;5063129;28;20048;-70
2023/02/15 11:48:39;;;;;;;105.30;64.25;;;;;;;11.17;61.37;102090.94;5059154;28;20047;-70
2023/02/15 11:51:12;;;;;;;99.40;64.60;;;;;;;11.04;61.37;102085.19;5059470;28;20053;-68
2023/02/15 11:53:40;;;;;;;95.40;64.00;;;;;;;11.55;60.83;102085.72;5054734;28;20053;-71
2023/02/15 11:56:14;;;;;;;95.97;64.53;;;;;;;11.27;61.46;102079.84;5032239;28;20049;-72
2023/02/15 11:58:45;;;;;;;95.72;64.95;;;;;;;11.19;60.93;102076.84;5059822;28;20044;-71
2023/02/15 12:01:44;;;;;;;95.78;63.08;;;;;;;11.57;60.52;102080.72;5062955;28;20064;-70
2023/02/15 12:04:46;;;;;;;98.18;63.55;;;;;;;11.42;60.33;102072.56;5073505;28;20491;-72